createdAt,value
2023-01-19T00:02:57.861Z,10.10
2023-01-19T00:06:08.620Z,9.52
2023-01-19T00:09:12.097Z,10.18
2023-01-19T00:12:15.492Z,10.25
2023-01-19T00:15:18.862Z,10.40
2023-01-19T00:18:22.501Z,8.23
2023-01-19T00:21:27.366Z,9.13
2023-01-19T00:24:31.107Z,8.60
2023-01-19T00:27:35.144Z,9.00
2023-01-19T00:30:39.445Z,9.50
2023-01-19T00:33:42.819Z,8.73
2023-01-19T00:36:46.254Z,6.82
2023-01-19T00:39:49.831Z,8.00
2023-01-19T00:42:53.275Z,7.68
2023-01-19T00:45:56.820Z,9.20
2023-01-19T00:49:00.384Z,9.27
2023-01-19T00:52:03.853Z,7.70
2023-01-19T00:55:09.120Z,8.07
2023-01-19T00:58:12.624Z,7.07
2023-01-19T01:01:16.109Z,7.77
2023-01-19T01:04:19.693Z,7.32
2023-01-19T01:07:24.514Z,6.32
2023-01-19T01:10:29.499Z,7.47
2023-01-19T01:13:33.234Z,7.18
2023-01-19T01:16:37.172Z,7.43
2023-01-19T01:19:41.956Z,6.50
2023-01-19T01:22:48.227Z,5.47
2023-01-19T01:25:51.749Z,7.35
2023-01-19T01:28:55.215Z,5.78
2023-01-19T01:31:59.065Z,5.20
2023-01-19T01:35:02.544Z,9.00
2023-01-19T01:38:05.911Z,4.32
2023-01-19T01:41:09.906Z,6.72
2023-01-19T01:44:49.960Z,5.40
2023-01-19T01:47:54.443Z,5.20
2023-01-19T01:51:24.154Z,4.57
2023-01-19T01:54:30.393Z,5.57
2023-01-19T01:57:37.206Z,4.03
2023-01-19T02:01:00.126Z,3.75
2023-01-19T02:04:03.749Z,5.60
2023-01-19T02:07:25.838Z,4.13
2023-01-19T02:10:47.932Z,3.03
2023-01-19T02:13:51.578Z,4.72
2023-01-19T02:16:55.203Z,4.28
2023-01-19T02:19:58.783Z,6.70
2023-01-19T02:23:07.725Z,5.43
2023-01-19T02:26:18.919Z,3.42
2023-01-19T02:29:25.249Z,4.35
2023-01-19T02:32:28.914Z,4.18
2023-01-19T02:35:34.610Z,3.63
2023-01-19T02:38:40.172Z,3.80
2023-01-19T02:41:49.071Z,3.92
2023-01-19T02:44:55.333Z,5.13
2023-01-19T02:47:58.785Z,5.45
2023-01-19T02:51:08.487Z,5.10
2023-01-19T02:54:35.925Z,5.47
2023-01-19T02:57:53.596Z,3.47
2023-01-19T03:01:12.741Z,5.40
2023-01-19T03:04:42.638Z,3.80
2023-01-19T03:08:01.337Z,4.27
2023-01-19T03:11:10.429Z,6.10
2023-01-19T03:14:20.061Z,5.15
2023-01-19T03:17:24.005Z,4.47
2023-01-19T03:20:29.093Z,4.65
2023-01-19T03:23:34.991Z,8.23
2023-01-19T03:26:44.112Z,4.03
2023-01-19T03:29:53.855Z,4.70
2023-01-19T03:33:08.341Z,3.30
2023-01-19T03:36:58.502Z,3.72
2023-01-19T03:40:02.036Z,3.93
2023-01-19T03:43:06.568Z,5.77
2023-01-19T03:46:11.356Z,4.78
2023-01-19T03:49:15.235Z,3.17
2023-01-19T03:52:18.745Z,4.50
2023-01-19T03:55:22.159Z,4.13
2023-01-19T03:58:25.690Z,5.30
2023-01-19T04:01:29.569Z,3.88
2023-01-19T04:04:33.373Z,3.78
2023-01-19T04:07:36.802Z,3.67
2023-01-19T04:10:40.415Z,5.10
2023-01-19T04:13:44.917Z,3.83
2023-01-19T04:16:48.426Z,4.38
2023-01-19T04:19:53.596Z,5.47
2023-01-19T04:23:01.327Z,3.85
2023-01-19T04:26:07.451Z,3.67
2023-01-19T04:29:11.254Z,5.20
2023-01-19T04:32:14.970Z,5.28
2023-01-19T04:35:19.248Z,3.95
2023-01-19T04:38:24.393Z,6.18
2023-01-19T04:41:29.101Z,4.33
2023-01-19T04:44:33.731Z,3.83
2023-01-19T04:47:37.546Z,5.32
2023-01-19T04:50:42.082Z,5.68
2023-01-19T04:53:45.499Z,7.03
2023-01-19T04:56:49.034Z,4.13
2023-01-19T04:59:52.449Z,6.60
2023-01-19T05:02:55.886Z,7.68
2023-01-19T05:05:59.449Z,5.75
2023-01-19T05:09:04.383Z,6.25
2023-01-19T05:12:08.674Z,6.70
2023-01-19T05:15:12.202Z,7.87
2023-01-19T05:18:15.875Z,6.97
2023-01-19T05:21:20.068Z,7.47
2023-01-19T05:24:23.509Z,6.40
2023-01-19T05:27:26.941Z,6.03
2023-01-19T05:30:30.494Z,6.20
2023-01-19T05:33:33.984Z,6.32
2023-01-19T05:36:37.477Z,7.38
2023-01-19T05:39:40.970Z,7.85
2023-01-19T05:42:44.487Z,6.80
2023-01-19T05:45:47.889Z,8.43
2023-01-19T05:48:51.732Z,7.45
2023-01-19T05:51:55.453Z,7.85
2023-01-19T05:54:58.869Z,6.47
2023-01-19T05:58:02.330Z,7.67
2023-01-19T06:01:10.382Z,7.40
2023-01-19T06:04:13.832Z,6.90
2023-01-19T06:07:17.272Z,10.05
2023-01-19T06:10:20.910Z,9.30
2023-01-19T06:13:24.408Z,10.67
2023-01-19T06:16:28.062Z,8.63
2023-01-19T06:19:31.996Z,8.07
2023-01-19T06:22:36.509Z,11.20
2023-01-19T06:25:39.977Z,10.48
2023-01-19T06:28:43.476Z,8.07
2023-01-19T06:31:47.027Z,7.73
2023-01-19T06:34:52.662Z,7.68
2023-01-19T06:37:56.847Z,7.32
2023-01-19T06:41:02.796Z,8.73
2023-01-19T06:44:07.440Z,7.63
2023-01-19T06:47:14.866Z,8.60
2023-01-19T06:50:19.659Z,7.40
2023-01-19T06:53:23.327Z,9.57
2023-01-19T06:56:27.117Z,8.80
2023-01-19T06:59:30.911Z,9.07
2023-01-19T07:02:35.670Z,10.57
2023-01-19T07:05:39.381Z,7.10
2023-01-19T07:08:42.975Z,7.43
2023-01-19T07:11:47.297Z,8.90
2023-01-19T07:14:50.905Z,6.37
2023-01-19T07:17:57.664Z,9.70
2023-01-19T07:21:01.438Z,7.68
2023-01-19T07:24:05.145Z,8.05
2023-01-19T07:27:08.691Z,8.98
2023-01-19T07:30:12.513Z,6.80
2023-01-19T07:33:15.998Z,8.17
2023-01-19T07:36:19.498Z,8.48
2023-01-19T07:39:23.677Z,8.93
2023-01-19T07:42:27.671Z,7.13
2023-01-19T07:45:31.407Z,11.10
2023-01-19T07:48:35.123Z,9.87
2023-01-19T07:51:38.516Z,8.18
2023-01-19T07:54:42.033Z,10.13
2023-01-19T07:57:45.491Z,8.30
2023-01-19T08:00:49.012Z,8.83
2023-01-19T08:03:52.636Z,10.87
2023-01-19T08:06:57.092Z,8.88
2023-01-19T08:10:00.592Z,13.63
2023-01-19T08:13:04.228Z,10.50
2023-01-19T08:16:08.032Z,8.73
2023-01-19T08:19:11.559Z,8.23
2023-01-19T08:22:15.061Z,7.75
2023-01-19T08:25:18.676Z,8.07
2023-01-19T08:28:22.850Z,9.00
2023-01-19T08:31:26.959Z,10.23
2023-01-19T08:34:31.193Z,8.13
2023-01-19T08:37:34.618Z,8.02
2023-01-19T08:40:40.438Z,11.80
2023-01-19T08:43:45.581Z,7.82
2023-01-19T08:46:49.358Z,8.03
2023-01-19T08:49:52.893Z,9.77
2023-01-19T08:53:01.539Z,7.68
2023-01-19T08:56:07.533Z,10.10
2023-01-19T08:59:13.108Z,11.38
2023-01-19T09:02:18.088Z,7.97
2023-01-19T09:05:21.840Z,10.77
2023-01-19T09:08:25.490Z,9.45
2023-01-19T09:11:29.145Z,9.23
2023-01-19T09:14:32.820Z,9.95
2023-01-19T09:17:36.565Z,8.47
2023-01-19T09:20:45.955Z,10.37
2023-01-19T09:23:49.614Z,9.65
2023-01-19T09:26:53.183Z,10.15
2023-01-19T09:29:56.748Z,11.63
2023-01-19T09:33:11.286Z,9.40
2023-01-19T09:36:15.016Z,8.97
2023-01-19T09:39:18.859Z,9.68
2023-01-19T09:42:36.228Z,10.50
2023-01-19T09:45:59.801Z,10.80
2023-01-19T09:49:16.119Z,8.83
2023-01-19T09:52:20.779Z,20.07
2023-01-19T09:55:28.117Z,19.00
2023-01-19T09:58:31.768Z,16.10
2023-01-19T10:01:47.012Z,11.55
2023-01-19T10:04:56.288Z,12.17
2023-01-19T10:08:17.436Z,12.13
2023-01-19T10:11:26.291Z,10.25
2023-01-19T10:14:48.883Z,12.00
2023-01-19T10:17:53.540Z,7.47
2023-01-19T10:21:18.197Z,8.80
2023-01-19T10:24:33.394Z,10.37
2023-01-19T10:27:38.777Z,8.93
2023-01-19T10:30:44.706Z,6.68
2023-01-19T10:33:52.670Z,8.10
2023-01-19T10:37:04.609Z,10.27
2023-01-19T10:40:11.268Z,7.80
2023-01-19T10:43:38.525Z,8.18
2023-01-19T10:46:49.041Z,6.63
2023-01-19T10:49:53.048Z,7.68
2023-01-19T10:52:59.558Z,5.50
2023-01-19T10:56:23.950Z,7.87
2023-01-19T10:59:45.614Z,10.57
2023-01-19T11:02:52.044Z,4.57
2023-01-19T11:06:17.744Z,7.28
2023-01-19T11:09:22.313Z,9.87
2023-01-19T11:12:25.879Z,7.27
2023-01-19T11:15:44.556Z,7.22
2023-01-19T11:18:53.984Z,5.57
2023-01-19T11:22:22.935Z,10.02
2023-01-19T11:25:31.201Z,7.47
2023-01-19T11:28:36.646Z,6.57
2023-01-19T11:31:40.753Z,9.75
2023-01-19T11:34:44.245Z,6.82
2023-01-19T11:37:47.865Z,5.15
2023-01-19T11:40:57.605Z,8.10
2023-01-19T11:44:20.206Z,8.23
2023-01-19T11:47:41.269Z,9.57
2023-01-19T11:50:46.125Z,7.90
2023-01-19T11:53:52.994Z,8.52
2023-01-19T11:57:00.469Z,8.70
2023-01-19T12:00:17.790Z,9.53
2023-01-19T12:03:30.765Z,6.15
2023-01-19T12:06:38.906Z,7.43
2023-01-19T12:09:47.452Z,8.88
2023-01-19T12:12:52.094Z,10.33
2023-01-19T12:16:22.690Z,8.60
2023-01-19T12:19:42.068Z,8.43
2023-01-19T12:22:55.122Z,9.80
2023-01-19T12:26:07.522Z,9.93
2023-01-19T12:29:17.422Z,12.97
2023-01-19T12:32:36.971Z,14.33
2023-01-19T12:36:20.110Z,8.48
2023-01-19T12:39:25.718Z,5.50
2023-01-19T12:42:30.196Z,10.23
2023-01-19T12:45:38.095Z,7.07
2023-01-19T12:48:41.832Z,6.03
2023-01-19T12:51:46.012Z,8.65
2023-01-19T12:55:05.317Z,6.45
2023-01-19T12:58:21.527Z,11.35
2023-01-19T13:01:27.255Z,7.33
2023-01-19T13:04:35.298Z,8.23
2023-01-19T13:08:08.148Z,9.43
2023-01-19T13:11:17.441Z,13.35
2023-01-19T13:14:34.727Z,9.75
2023-01-19T13:17:51.339Z,8.93
2023-01-19T13:20:58.273Z,7.43
2023-01-19T13:24:05.871Z,10.07
2023-01-19T13:27:13.388Z,11.90
2023-01-19T13:30:19.765Z,14.20
2023-01-19T13:33:27.007Z,9.47
2023-01-19T13:36:36.444Z,15.50
2023-01-19T13:39:44.531Z,10.27
2023-01-19T13:42:49.499Z,9.63
2023-01-19T13:45:54.030Z,7.00
2023-01-19T13:49:17.388Z,9.77
2023-01-19T13:52:26.380Z,11.67
2023-01-19T13:55:31.794Z,11.98
2023-01-19T13:58:35.434Z,12.80
2023-01-19T14:01:42.018Z,13.07
2023-01-19T14:04:45.879Z,11.67
2023-01-19T14:07:59.581Z,10.67
2023-01-19T14:11:04.411Z,13.77
2023-01-19T14:14:23.277Z,12.32
2023-01-19T14:17:29.926Z,45.03
2023-01-19T14:20:36.937Z,31.47
2023-01-19T14:23:52.201Z,24.60
2023-01-19T14:27:10.312Z,26.17
2023-01-19T14:30:25.307Z,26.88
2023-01-19T14:33:36.329Z,21.20
2023-01-19T14:36:40.468Z,17.17
2023-01-19T14:39:55.274Z,14.57
2023-01-19T14:43:05.775Z,13.15
2023-01-19T14:46:15.421Z,20.50
2023-01-19T14:49:40.741Z,22.75
2023-01-19T14:52:57.715Z,12.30
2023-01-19T14:56:04.834Z,9.10
2023-01-19T14:59:11.133Z,12.43
2023-01-19T15:02:14.872Z,24.55
2023-01-19T15:05:18.521Z,15.88
2023-01-19T15:08:40.373Z,24.33
2023-01-19T15:11:47.233Z,25.90
2023-01-19T15:14:50.931Z,19.98
2023-01-19T15:17:56.201Z,16.35
2023-01-19T15:21:03.215Z,17.48
2023-01-19T15:24:06.721Z,19.63
2023-01-19T15:27:13.505Z,19.50
2023-01-19T15:30:27.984Z,14.57
2023-01-19T15:33:31.622Z,17.05
2023-01-19T15:36:35.040Z,119.68
2023-01-19T15:39:39.860Z,49.10
2023-01-19T15:42:43.664Z,15.73
2023-01-19T15:46:03.461Z,14.98
2023-01-19T15:49:07.012Z,18.88
2023-01-19T15:52:10.571Z,20.63
2023-01-19T15:55:15.985Z,31.07
2023-01-19T15:58:20.771Z,24.90
2023-01-19T16:01:34.068Z,25.17
2023-01-19T16:04:37.667Z,20.73
2023-01-19T16:07:41.297Z,18.20
2023-01-19T16:10:44.992Z,14.03
2023-01-19T16:13:48.701Z,15.57
2023-01-19T16:16:52.319Z,15.02
2023-01-19T16:19:55.888Z,14.57
2023-01-19T16:23:13.578Z,11.82
2023-01-19T16:26:33.740Z,10.30
2023-01-19T16:29:37.404Z,10.50
2023-01-19T16:32:40.822Z,12.90
2023-01-19T16:35:44.268Z,16.30
2023-01-19T16:38:47.799Z,13.00
2023-01-19T16:41:51.248Z,15.10
2023-01-19T16:44:54.744Z,12.43
2023-01-19T16:47:58.188Z,18.70
2023-01-19T16:51:07.041Z,14.88
2023-01-19T16:54:18.558Z,10.02
2023-01-19T16:57:21.993Z,8.10
2023-01-19T17:00:26.210Z,7.80
2023-01-19T17:03:30.158Z,9.18
2023-01-19T17:06:34.283Z,12.10
2023-01-19T17:09:38.051Z,9.38
2023-01-19T17:12:42.065Z,11.63
2023-01-19T17:15:45.577Z,10.33
2023-01-19T17:18:49.633Z,10.77
2023-01-19T17:21:53.324Z,11.85
2023-01-19T17:24:56.868Z,9.80
2023-01-19T17:28:01.489Z,9.87
2023-01-19T17:31:14.298Z,9.60
2023-01-19T17:34:17.989Z,9.05
2023-01-19T17:37:21.649Z,13.77
2023-01-19T17:40:26.255Z,11.27
2023-01-19T17:43:30.007Z,12.13
2023-01-19T17:46:37.005Z,11.10
2023-01-19T17:49:40.890Z,11.50
2023-01-19T17:52:44.563Z,11.63
2023-01-19T17:55:48.320Z,9.73
2023-01-19T17:58:52.539Z,11.13
2023-01-19T18:01:56.322Z,13.07
2023-01-19T18:05:02.531Z,11.65
2023-01-19T18:08:06.180Z,13.27
2023-01-19T18:11:10.962Z,11.27
2023-01-19T18:14:14.512Z,10.47
2023-01-19T18:17:18.967Z,10.87
2023-01-19T18:20:22.625Z,11.98
2023-01-19T18:23:26.338Z,12.30
2023-01-19T18:26:31.653Z,10.15
2023-01-19T18:29:35.224Z,8.67
2023-01-19T18:32:39.140Z,10.40
2023-01-19T18:35:42.828Z,10.25
2023-01-19T18:38:47.405Z,10.57
2023-01-19T18:41:51.235Z,9.27
2023-01-19T18:44:54.997Z,10.73
2023-01-19T18:48:00.638Z,11.40
2023-01-19T18:51:13.567Z,10.70
2023-01-19T18:54:18.408Z,11.98
2023-01-19T18:57:22.181Z,10.95
2023-01-19T19:00:25.987Z,16.03
2023-01-19T19:03:30.231Z,11.20
2023-01-19T19:06:34.587Z,10.85
2023-01-19T19:09:38.505Z,10.80
2023-01-19T19:12:42.682Z,11.68
2023-01-19T19:15:46.299Z,10.90
2023-01-19T19:18:50.213Z,12.50
2023-01-19T19:21:54.000Z,12.13
2023-01-19T19:24:57.730Z,11.65
2023-01-19T19:28:01.471Z,14.07
2023-01-19T19:31:13.786Z,16.43
2023-01-19T19:34:17.281Z,16.13
2023-01-19T19:37:21.007Z,14.40
2023-01-19T19:40:26.569Z,13.90
2023-01-19T19:43:33.106Z,16.08
2023-01-19T19:46:36.902Z,17.60
2023-01-19T19:49:41.037Z,17.90
2023-01-19T19:52:44.912Z,16.83
2023-01-19T19:56:02.537Z,19.65
2023-01-19T19:59:06.886Z,22.55
2023-01-19T20:02:12.882Z,22.30
2023-01-19T20:05:16.612Z,25.07
2023-01-19T20:08:20.487Z,17.67
2023-01-19T20:11:27.307Z,19.70
2023-01-19T20:14:30.732Z,24.20
2023-01-19T20:17:34.452Z,25.70
2023-01-19T20:20:38.530Z,22.17
2023-01-19T20:23:43.252Z,21.83
2023-01-19T20:26:51.743Z,22.75
2023-01-19T20:29:58.307Z,36.53
2023-01-19T20:33:02.229Z,26.27
2023-01-19T20:36:06.542Z,23.17
2023-01-19T20:39:11.281Z,29.30
2023-01-19T20:42:16.588Z,27.40
2023-01-19T20:45:20.908Z,24.30
2023-01-19T20:48:25.153Z,25.03
2023-01-19T20:51:29.416Z,18.95
2023-01-19T20:54:33.248Z,24.85
2023-01-19T20:57:36.911Z,20.85
2023-01-19T21:00:40.996Z,18.70
2023-01-19T21:03:44.975Z,19.07
2023-01-19T21:06:48.907Z,19.43
2023-01-19T21:09:52.746Z,17.92
2023-01-19T21:12:56.231Z,18.35
2023-01-19T21:16:00.401Z,16.15
2023-01-19T21:19:05.007Z,16.37
2023-01-19T21:22:08.461Z,20.70
2023-01-19T21:25:12.538Z,19.13
2023-01-19T21:28:16.310Z,17.83
2023-01-19T21:31:22.957Z,21.42
2023-01-19T21:34:26.563Z,22.90
2023-01-19T21:37:31.225Z,26.17
2023-01-19T21:40:36.812Z,21.08
2023-01-19T21:43:42.730Z,18.80
2023-01-19T21:46:46.201Z,20.80
2023-01-19T21:49:49.995Z,18.97
2023-01-19T21:52:53.436Z,19.88
2023-01-19T21:55:57.165Z,18.33
2023-01-19T21:59:04.383Z,18.73
2023-01-19T22:02:11.339Z,18.02
2023-01-19T22:05:15.220Z,17.97
2023-01-19T22:08:19.117Z,19.75
2023-01-19T22:11:23.638Z,23.08
2023-01-19T22:14:27.692Z,21.20
2023-01-19T22:17:31.160Z,20.98
2023-01-19T22:20:34.666Z,20.17
2023-01-19T22:23:38.688Z,23.02
2023-01-19T22:26:42.237Z,20.60
2023-01-19T22:29:46.996Z,19.67
2023-01-19T22:32:50.663Z,20.17
2023-01-19T22:35:54.124Z,22.90
2023-01-19T22:38:59.717Z,22.88
2023-01-19T22:42:03.325Z,23.10
2023-01-19T22:45:07.321Z,23.30
2023-01-19T22:48:10.764Z,24.00
2023-01-19T22:51:14.672Z,22.83
2023-01-19T22:54:18.107Z,24.17
2023-01-19T22:57:21.538Z,21.02
2023-01-19T23:00:25.136Z,26.10
2023-01-19T23:03:30.084Z,28.40
2023-01-19T23:06:37.625Z,22.17
2023-01-19T23:09:41.440Z,21.73
2023-01-19T23:12:46.718Z,23.92
2023-01-19T23:15:50.273Z,20.70
2023-01-19T23:18:55.269Z,22.75
2023-01-19T23:21:58.974Z,24.50
2023-01-19T23:25:02.566Z,20.80
2023-01-19T23:28:06.244Z,20.00
2023-01-19T23:31:30.237Z,19.00
2023-01-19T23:34:33.765Z,19.02
2023-01-19T23:37:37.267Z,20.33
2023-01-19T23:40:40.687Z,20.83
2023-01-19T23:43:44.705Z,18.45
2023-01-19T23:46:48.376Z,18.63
2023-01-19T23:49:51.840Z,21.77
2023-01-19T23:52:55.503Z,23.73
2023-01-19T23:55:59.032Z,18.75
2023-01-19T23:59:08.339Z,18.75
